Time;durP1;ratioP1;P1;durP2;ratioP2;P2;SDS_P1;SDS_P2;PMS_P1;PMS_P2;Temp;Humidity;BMP_temperature;BMP_pressure;BME280_temperature;BME280_humidity;BME280_pressure;Samples;Min_cycle;Max_cycle;Signal;HPM_P1;HPM_P2
2023/12/21 00:00:15;;;;;;;441.17;164.57;;;;;;;;;;5043602;28;20198;-51
2023/12/21 00:02:41;;;;;;;463.93;172.70;;;;;;;;;;5041942;28;20223;-51
2023/12/21 00:05:07;;;;;;;431.77;158.57;;;;;;;;;;5044236;28;20214;-52
2023/12/21 00:07:33;;;;;;;449.40;170.10;;;;;;;;;;5036630;28;20934;-52
2023/12/21 00:09:59;;;;;;;420.37;152.97;;;;;;;;;;5039672;28;20210;-52
2023/12/21 00:12:25;;;;;;;398.73;145.60;;;;;;;;;;5035478;28;20194;-50
2023/12/21 00:14:51;;;;;;;453.40;168.07;;;;;;;;;;5042683;28;20533;-50
2023/12/21 00:17:17;;;;;;;443.90;167.00;;;;;;;;;;5040309;28;20219;-51
2023/12/21 00:19:43;;;;;;;416.30;152.47;;;;;;;;;;5039243;28;20223;-52
2023/12/21 00:22:09;;;;;;;420.40;154.20;;;;;;;;;;5039934;28;20211;-52
2023/12/21 00:24:35;;;;;;;457.53;172.03;;;;;;;;;;5033858;28;20222;-51
2023/12/21 00:27:01;;;;;;;410.60;150.03;;;;;;;;;;5033232;28;20226;-51
2023/12/21 00:29:27;;;;;;;407.20;148.60;;;;;;;;;;5042486;28;20226;-52
2023/12/21 00:31:53;;;;;;;419.57;155.73;;;;;;;;;;5044537;28;20225;-52
2023/12/21 00:34:19;;;;;;;418.90;155.50;;;;;;;;;;5040129;28;20268;-52
2023/12/21 00:36:47;;;;;;;416.50;150.53;;;;;;;;;;5041638;28;21099;-51
2023/12/21 00:39:13;;;;;;;395.73;145.90;;;;;;;;;;5037173;28;20194;-51
2023/12/21 00:41:39;;;;;;;406.27;148.83;;;;;;;;;;5024335;28;20211;-51
2023/12/21 00:44:05;;;;;;;399.33;146.83;;;;;;;;;;5040289;28;20756;-51
2023/12/21 00:46:30;;;;;;;426.90;157.53;;;;;;;;;;5042602;28;20211;-51
2023/12/21 00:48:56;;;;;;;426.47;154.40;;;;;;;;;;5048620;28;20222;-52
2023/12/21 00:51:22;;;;;;;420.70;154.30;;;;;;;;;;5047461;28;20270;-52
2023/12/21 00:53:48;;;;;;;421.30;151.40;;;;;;;;;;5045606;28;20673;-52
2023/12/21 00:56:14;;;;;;;436.33;161.47;;;;;;;;;;5046076;28;20231;-52
2023/12/21 00:58:40;;;;;;;425.63;157.83;;;;;;;;;;5041095;28;20254;-51
2023/12/21 01:01:06;;;;;;;424.67;156.47;;;;;;;;;;5045627;28;20228;-51
2023/12/21 01:03:32;;;;;;;418.93;159.87;;;;;;;;;;5048626;28;20211;-52
2023/12/21 01:05:58;;;;;;;464.90;176.50;;;;;;;;;;5043585;28;20184;-52
2023/12/21 01:08:24;;;;;;;407.20;148.13;;;;;;;;;;5039648;28;20226;-51
2023/12/21 01:10:50;;;;;;;412.87;153.13;;;;;;;;;;5046218;28;20221;-52
2023/12/21 01:13:16;;;;;;;409.47;149.13;;;;;;;;;;5048477;28;20316;-52
2023/12/21 01:15:42;;;;;;;443.67;164.83;;;;;;;;;;5036174;28;20603;-52
2023/12/21 01:18:08;;;;;;;420.53;153.30;;;;;;;;;;5045687;28;20710;-52
2023/12/21 01:20:34;;;;;;;410.57;153.43;;;;;;;;;;5045232;28;20294;-52
2023/12/21 01:23:00;;;;;;;401.07;147.90;;;;;;;;;;5040377;28;20237;-52
2023/12/21 01:25:26;;;;;;;442.37;165.20;;;;;;;;;;5041456;28;20307;-52
2023/12/21 01:27:52;;;;;;;432.33;154.97;;;;;;;;;;5045023;28;20226;-52
2023/12/21 01:30:18;;;;;;;429.93;157.53;;;;;;;;;;5040453;28;20190;-51
2023/12/21 01:32:44;;;;;;;446.17;166.20;;;;;;;;;;5048017;28;20566;-52
2023/12/21 01:35:10;;;;;;;408.77;152.07;;;;;;;;;;5042206;28;20232;-52
2023/12/21 01:37:36;;;;;;;427.60;154.53;;;;;;;;;;5040853;28;20259;-52
2023/12/21 01:40:03;;;;;;;471.73;180.30;;;;;;;;;;5041141;28;20218;-51
2023/12/21 01:42:29;;;;;;;420.83;153.23;;;;;;;;;;5043342;28;20197;-52
2023/12/21 01:44:55;;;;;;;416.53;152.80;;;;;;;;;;5042040;28;20282;-51
2023/12/21 01:47:21;;;;;;;426.93;155.80;;;;;;;;;;5046138;28;20345;-52
2023/12/21 01:49:48;;;;;;;429.47;161.70;;;;;;;;;;5047245;28;20214;-51
2023/12/21 01:52:15;;;;;;;447.93;167.87;;;;;;;;;;5041237;28;20221;-51
2023/12/21 01:54:41;;;;;;;411.97;158.00;;;;;;;;;;5043285;28;20210;-51
2023/12/21 01:57:07;;;;;;;437.70;160.97;;;;;;;;;;5048678;28;20263;-50
2023/12/21 01:59:33;;;;;;;441.30;160.73;;;;;;;;;;5042669;28;20744;-52
2023/12/21 02:01:59;;;;;;;415.13;152.63;;;;;;;;;;5045285;28;20302;-52
2023/12/21 02:04:25;;;;;;;413.37;152.67;;;;;;;;;;5048151;28;20519;-52
2023/12/21 02:06:51;;;;;;;445.27;165.17;;;;;;;;;;5044316;28;20618;-51
2023/12/21 02:09:17;;;;;;;448.20;166.33;;;;;;;;;;5041938;28;20190;-52
2023/12/21 02:11:43;;;;;;;417.00;152.50;;;;;;;;;;5047129;28;20649;-52
2023/12/21 02:14:09;;;;;;;432.70;157.50;;;;;;;;;;5046512;28;20637;-51
2023/12/21 02:16:37;;;;;;;404.30;151.67;;;;;;;;;;5043350;28;20697;-52
2023/12/21 02:19:03;;;;;;;411.70;152.13;;;;;;;;;;5047930;28;20840;-51
2023/12/21 02:21:30;;;;;;;421.80;154.10;;;;;;;;;;5036808;28;20175;-53
2023/12/21 02:23:57;;;;;;;419.10;155.07;;;;;;;;;;5041907;28;20207;-53
2023/12/21 02:26:24;;;;;;;417.90;152.53;;;;;;;;;;5038045;28;20219;-53
2023/12/21 02:28:50;;;;;;;415.00;156.80;;;;;;;;;;5040827;28;20217;-53
2023/12/21 02:31:16;;;;;;;412.40;152.20;;;;;;;;;;5039907;28;20223;-53
2023/12/21 02:33:42;;;;;;;456.60;171.27;;;;;;;;;;5042786;28;21725;-52
2023/12/21 02:36:08;;;;;;;442.10;162.23;;;;;;;;;;5049051;28;20301;-53
2023/12/21 02:38:34;;;;;;;454.63;165.43;;;;;;;;;;5040048;28;20203;-52
2023/12/21 02:41:00;;;;;;;413.37;151.73;;;;;;;;;;5042197;28;20797;-53
2023/12/21 02:43:26;;;;;;;443.17;164.37;;;;;;;;;;5040727;28;20215;-53
2023/12/21 02:45:52;;;;;;;434.17;159.83;;;;;;;;;;5037504;28;20720;-52
2023/12/21 02:48:18;;;;;;;413.40;153.40;;;;;;;;;;5035378;28;20722;-53
2023/12/21 02:50:44;;;;;;;433.40;161.00;;;;;;;;;;5039628;28;20246;-52
2023/12/21 02:53:10;;;;;;;425.47;156.57;;;;;;;;;;5033734;28;20223;-52
2023/12/21 02:55:36;;;;;;;423.07;152.83;;;;;;;;;;5043613;28;20803;-52
2023/12/21 02:58:02;;;;;;;399.63;144.53;;;;;;;;;;5038377;28;20546;-52
2023/12/21 03:00:28;;;;;;;414.27;147.73;;;;;;;;;;5036973;28;20234;-53
2023/12/21 03:02:54;;;;;;;489.23;185.03;;;;;;;;;;5048932;28;20637;-53
2023/12/21 03:05:22;;;;;;;422.73;155.70;;;;;;;;;;5037248;28;20794;-52
2023/12/21 03:07:48;;;;;;;446.83;164.87;;;;;;;;;;5036432;28;20358;-52
2023/12/21 03:10:15;;;;;;;414.07;150.53;;;;;;;;;;5035271;28;20230;-53
2023/12/21 03:12:41;;;;;;;458.17;172.03;;;;;;;;;;5044736;28;20212;-53
2023/12/21 03:15:07;;;;;;;436.27;161.43;;;;;;;;;;5044041;28;20245;-53
2023/12/21 03:17:34;;;;;;;398.03;143.10;;;;;;;;;;5041109;28;20897;-53
2023/12/21 03:20:01;;;;;;;411.77;150.00;;;;;;;;;;5045492;28;20199;-52
2023/12/21 03:22:27;;;;;;;449.80;168.00;;;;;;;;;;5035873;28;20228;-52
2023/12/21 03:24:53;;;;;;;445.30;166.67;;;;;;;;;;5039814;28;20219;-52
2023/12/21 03:27:19;;;;;;;404.10;147.93;;;;;;;;;;5047201;28;20642;-52
2023/12/21 03:29:45;;;;;;;427.47;161.53;;;;;;;;;;5038928;28;20253;-53
2023/12/21 03:32:11;;;;;;;448.07;165.20;;;;;;;;;;5037657;28;20243;-52
2023/12/21 03:34:37;;;;;;;408.90;152.10;;;;;;;;;;5042867;28;20913;-52
2023/12/21 03:37:03;;;;;;;418.67;154.07;;;;;;;;;;5037897;28;20653;-52
2023/12/21 03:39:29;;;;;;;452.03;173.23;;;;;;;;;;5039271;28;20237;-52
2023/12/21 03:41:56;;;;;;;458.70;176.27;;;;;;;;;;5038443;28;20531;-52
2023/12/21 03:44:22;;;;;;;443.27;167.90;;;;;;;;;;5034599;28;20240;-52
2023/12/21 03:46:48;;;;;;;462.20;172.90;;;;;;;;;;5043996;28;20235;-52
2023/12/21 03:49:14;;;;;;;413.93;152.60;;;;;;;;;;5041190;28;20272;-52
2023/12/21 03:51:40;;;;;;;426.97;158.57;;;;;;;;;;5047514;28;20191;-51
2023/12/21 03:54:07;;;;;;;415.63;153.03;;;;;;;;;;5042288;28;20209;-52
2023/12/21 03:56:33;;;;;;;428.27;159.07;;;;;;;;;;5040141;28;20306;-51
2023/12/21 03:58:59;;;;;;;447.63;165.00;;;;;;;;;;5043501;28;20693;-52
2023/12/21 04:01:25;;;;;;;412.17;152.67;;;;;;;;;;5035375;28;20210;-52
2023/12/21 04:03:51;;;;;;;447.40;165.07;;;;;;;;;;5041146;28;20219;-52
2023/12/21 04:06:17;;;;;;;439.33;160.63;;;;;;;;;;5035960;28;20642;-52
2023/12/21 04:08:43;;;;;;;423.60;154.30;;;;;;;;;;5040947;28;20221;-52
2023/12/21 04:11:09;;;;;;;426.47;157.40;;;;;;;;;;5038851;28;20230;-52
2023/12/21 04:13:35;;;;;;;463.27;174.03;;;;;;;;;;5042532;28;20581;-52
2023/12/21 04:16:01;;;;;;;439.30;164.60;;;;;;;;;;5040195;28;20289;-52
2023/12/21 04:18:29;;;;;;;414.10;151.73;;;;;;;;;;5039044;28;20534;-53
2023/12/21 04:20:55;;;;;;;434.13;161.53;;;;;;;;;;5040220;28;20175;-52
2023/12/21 04:23:21;;;;;;;435.20;161.97;;;;;;;;;;5039114;28;20230;-51
2023/12/21 04:25:47;;;;;;;396.97;148.13;;;;;;;;;;5037553;28;20724;-55
2023/12/21 04:28:13;;;;;;;396.03;146.50;;;;;;;;;;5043403;28;20366;-55
2023/12/21 04:30:39;;;;;;;402.17;151.03;;;;;;;;;;5041295;28;20637;-55
2023/12/21 04:33:05;;;;;;;488.10;185.83;;;;;;;;;;5036565;28;20221;-55
2023/12/21 04:35:31;;;;;;;432.90;161.40;;;;;;;;;;5041974;28;20218;-55
2023/12/21 04:37:57;;;;;;;422.67;158.73;;;;;;;;;;5050053;28;20279;-55
2023/12/21 04:40:23;;;;;;;428.70;158.13;;;;;;;;;;5039421;28;20211;-55
2023/12/21 04:42:54;;;;;;;449.70;167.50;;;;;;;;;;5033213;28;20717;-55
2023/12/21 04:45:20;;;;;;;446.00;168.83;;;;;;;;;;5042532;28;20191;-55
2023/12/21 04:47:46;;;;;;;423.63;159.33;;;;;;;;;;5038542;28;20219;-55
2023/12/21 04:50:12;;;;;;;411.37;152.73;;;;;;;;;;5046614;28;20226;-55
2023/12/21 04:52:38;;;;;;;404.10;151.27;;;;;;;;;;5043858;28;20602;-55
2023/12/21 04:55:05;;;;;;;422.63;158.13;;;;;;;;;;5041032;28;20234;-55
2023/12/21 04:57:31;;;;;;;422.47;156.37;;;;;;;;;;5046321;28;20190;-55
2023/12/21 04:59:57;;;;;;;427.70;158.10;;;;;;;;;;5041667;28;20305;-55
2023/12/21 05:02:23;;;;;;;453.87;171.97;;;;;;;;;;5037590;28;20694;-55
2023/12/21 05:04:49;;;;;;;435.03;160.70;;;;;;;;;;5047101;28;20312;-55
2023/12/21 05:07:15;;;;;;;442.53;160.10;;;;;;;;;;5039175;28;20217;-55
2023/12/21 05:09:41;;;;;;;444.37;163.40;;;;;;;;;;5037754;28;20184;-55
2023/12/21 05:12:07;;;;;;;492.67;185.27;;;;;;;;;;5047138;28;20182;-55
2023/12/21 05:14:33;;;;;;;428.67;157.90;;;;;;;;;;5048400;28;20529;-55
2023/12/21 05:16:59;;;;;;;469.43;175.13;;;;;;;;;;5044346;28;20227;-55
2023/12/21 05:19:25;;;;;;;413.57;148.97;;;;;;;;;;5040109;28;20292;-54
2023/12/21 05:21:51;;;;;;;443.90;161.97;;;;;;;;;;5042356;28;20204;-56
2023/12/21 05:24:17;;;;;;;489.40;183.43;;;;;;;;;;5042290;28;20556;-54
2023/12/21 05:26:43;;;;;;;413.67;150.97;;;;;;;;;;5042596;28;20222;-54
2023/12/21 05:29:09;;;;;;;436.20;158.90;;;;;;;;;;5047653;28;20287;-54
2023/12/21 05:31:37;;;;;;;445.27;164.77;;;;;;;;;;5049299;28;20660;-54
2023/12/21 05:34:03;;;;;;;456.63;165.00;;;;;;;;;;5043001;28;20584;-54
2023/12/21 05:36:30;;;;;;;420.00;155.60;;;;;;;;;;5040203;28;20270;-54
2023/12/21 05:38:56;;;;;;;476.03;179.10;;;;;;;;;;5045795;28;20264;-54
2023/12/21 05:41:22;;;;;;;449.27;166.37;;;;;;;;;;5046683;28;20212;-54
2023/12/21 05:43:48;;;;;;;468.33;169.50;;;;;;;;;;5051897;28;20581;-54
2023/12/21 05:46:13;;;;;;;476.33;172.83;;;;;;;;;;5044673;28;20277;-55
2023/12/21 05:48:40;;;;;;;429.97;159.47;;;;;;;;;;5045185;28;20675;-55
2023/12/21 05:51:06;;;;;;;472.13;176.43;;;;;;;;;;5047737;28;20322;-55
2023/12/21 05:53:35;;;;;;;430.23;159.03;;;;;;;;;;5045961;28;20249;-55
2023/12/21 05:56:02;;;;;;;450.20;165.83;;;;;;;;;;5046151;28;20250;-55
2023/12/21 05:58:28;;;;;;;430.50;154.80;;;;;;;;;;5047598;28;20234;-55
2023/12/21 06:00:54;;;;;;;439.43;166.40;;;;;;;;;;5043220;28;20769;-55
2023/12/21 06:03:20;;;;;;;433.50;159.60;;;;;;;;;;5038625;28;20214;-55
2023/12/21 06:05:46;;;;;;;413.43;150.23;;;;;;;;;;5050269;28;20322;-55
2023/12/21 06:08:12;;;;;;;463.43;170.30;;;;;;;;;;5037983;28;20235;-54
2023/12/21 06:10:38;;;;;;;419.47;151.27;;;;;;;;;;5044415;28;20429;-55
2023/12/21 06:13:04;;;;;;;435.20;161.00;;;;;;;;;;5047253;28;20650;-55
2023/12/21 06:15:30;;;;;;;406.43;147.37;;;;;;;;;;5044457;28;20785;-55
2023/12/21 06:17:56;;;;;;;438.63;163.43;;;;;;;;;;5045537;28;20203;-55
2023/12/21 06:20:22;;;;;;;421.37;152.63;;;;;;;;;;5041720;28;20211;-55
2023/12/21 06:22:48;;;;;;;457.33;171.70;;;;;;;;;;5040590;28;20211;-54
2023/12/21 06:25:14;;;;;;;462.83;168.17;;;;;;;;;;5044502;28;20219;-55
2023/12/21 06:27:40;;;;;;;465.87;172.90;;;;;;;;;;5042676;28;20175;-55
2023/12/21 06:30:07;;;;;;;484.07;179.97;;;;;;;;;;5043491;28;20222;-55
2023/12/21 06:32:32;;;;;;;412.00;149.77;;;;;;;;;;5049552;28;20226;-55
2023/12/21 06:34:59;;;;;;;459.30;171.13;;;;;;;;;;5038436;28;20319;-55
2023/12/21 06:37:24;;;;;;;451.07;170.03;;;;;;;;;;5043371;28;20780;-55
2023/12/21 06:39:50;;;;;;;530.83;204.80;;;;;;;;;;5041275;28;20226;-56
2023/12/21 06:42:16;;;;;;;445.53;168.70;;;;;;;;;;5047289;28;20622;-56
2023/12/21 06:44:42;;;;;;;457.13;166.40;;;;;;;;;;5044630;28;20780;-55
2023/12/21 06:47:08;;;;;;;441.80;164.00;;;;;;;;;;5049013;28;20269;-56
2023/12/21 06:49:34;;;;;;;422.07;159.27;;;;;;;;;;5037981;28;20760;-56
2023/12/21 06:52:00;;;;;;;407.10;151.40;;;;;;;;;;5047469;28;20220;-56
2023/12/21 06:54:26;;;;;;;451.20;171.30;;;;;;;;;;5053418;28;20210;-55
2023/12/21 06:56:52;;;;;;;389.97;144.33;;;;;;;;;;5054141;28;20628;-57
2023/12/21 06:59:18;;;;;;;446.17;167.03;;;;;;;;;;5050839;28;20212;-56
2023/12/21 07:01:44;;;;;;;444.23;166.07;;;;;;;;;;5043325;28;20216;-56
2023/12/21 07:04:11;;;;;;;450.07;162.40;;;;;;;;;;5041696;28;20276;-56
2023/12/21 07:06:37;;;;;;;445.97;161.90;;;;;;;;;;5044395;28;20182;-56
2023/12/21 07:09:03;;;;;;;443.20;158.47;;;;;;;;;;5046414;28;20182;-55
2023/12/21 07:11:29;;;;;;;416.67;151.77;;;;;;;;;;5050669;28;20423;-55
2023/12/21 07:13:55;;;;;;;422.37;158.87;;;;;;;;;;5055618;28;20886;-55
2023/12/21 07:16:23;;;;;;;444.00;162.57;;;;;;;;;;5044201;28;20358;-55
2023/12/21 07:18:50;;;;;;;455.27;167.03;;;;;;;;;;5025683;28;20231;-55
2023/12/21 07:21:16;;;;;;;488.17;181.93;;;;;;;;;;5041018;28;20196;-55
2023/12/21 07:23:42;;;;;;;451.10;167.23;;;;;;;;;;5035193;28;20314;-55
2023/12/21 07:26:10;;;;;;;456.30;171.80;;;;;;;;;;5037424;28;20326;-55
2023/12/21 07:28:36;;;;;;;458.60;167.30;;;;;;;;;;5036629;28;20215;-54
2023/12/21 07:31:02;;;;;;;446.63;166.17;;;;;;;;;;5039016;28;20454;-55
2023/12/21 07:33:28;;;;;;;421.97;159.77;;;;;;;;;;5035322;28;20195;-55
2023/12/21 07:35:54;;;;;;;441.73;164.57;;;;;;;;;;5033788;28;20900;-55
2023/12/21 07:38:20;;;;;;;461.90;172.50;;;;;;;;;;5035306;28;20334;-55
2023/12/21 07:40:46;;;;;;;521.13;202.77;;;;;;;;;;5035434;28;20216;-55
2023/12/21 07:43:12;;;;;;;443.70;163.37;;;;;;;;;;5032536;28;20267;-54
2023/12/21 07:45:38;;;;;;;428.10;160.90;;;;;;;;;;5029746;28;20954;-55
2023/12/21 07:48:04;;;;;;;406.77;150.77;;;;;;;;;;5040500;28;20270;-55
2023/12/21 07:50:30;;;;;;;439.90;158.07;;;;;;;;;;5037433;28;20626;-55
2023/12/21 07:52:57;;;;;;;507.33;193.40;;;;;;;;;;5023754;28;20303;-55
2023/12/21 07:55:23;;;;;;;471.50;183.80;;;;;;;;;;5030133;28;20244;-55
2023/12/21 07:57:49;;;;;;;428.67;159.20;;;;;;;;;;5032052;28;20231;-56
2023/12/21 08:00:16;;;;;;;442.70;170.13;;;;;;;;;;5032542;28;20267;-56
2023/12/21 08:02:44;;;;;;;435.17;164.50;;;;;;;;;;5029689;28;20219;-56
2023/12/21 08:05:13;;;;;;;459.00;176.67;;;;;;;;;;5030548;28;20238;-56
2023/12/21 08:07:39;;;;;;;454.67;172.83;;;;;;;;;;5026317;28;20207;-56
2023/12/21 08:10:07;;;;;;;402.33;151.43;;;;;;;;;;5028950;28;20303;-56
2023/12/21 08:12:33;;;;;;;436.83;165.30;;;;;;;;;;5027886;28;20203;-55
2023/12/21 08:14:59;;;;;;;407.47;153.40;;;;;;;;;;5019794;28;20242;-57
2023/12/21 08:17:25;;;;;;;434.63;161.27;;;;;;;;;;5023465;28;20211;-56
2023/12/21 08:19:51;;;;;;;434.67;164.80;;;;;;;;;;5030909;28;20516;-55
2023/12/21 08:22:17;;;;;;;502.77;193.00;;;;;;;;;;5025266;28;20204;-54
2023/12/21 08:24:43;;;;;;;428.10;159.43;;;;;;;;;;5035130;28;20242;-55
2023/12/21 08:27:09;;;;;;;533.63;209.00;;;;;;;;;;5020815;28;20539;-55
2023/12/21 08:29:35;;;;;;;516.73;200.63;;;;;;;;;;5014001;28;20246;-55
2023/12/21 08:32:01;;;;;;;472.00;178.30;;;;;;;;;;5021973;28;20891;-55
2023/12/21 08:34:27;;;;;;;476.93;175.93;;;;;;;;;;5011895;28;20269;-55
2023/12/21 08:36:53;;;;;;;495.10;189.70;;;;;;;;;;5019297;28;20211;-55
2023/12/21 08:39:19;;;;;;;465.80;177.43;;;;;;;;;;5025232;28;20180;-55
2023/12/21 08:41:45;;;;;;;451.23;167.37;;;;;;;;;;5024576;28;20736;-55
2023/12/21 08:44:11;;;;;;;412.97;156.27;;;;;;;;;;5031084;28;20752;-55
2023/12/21 08:46:41;;;;;;;438.37;162.60;;;;;;;;;;5019887;28;20216;-55
2023/12/21 08:49:07;;;;;;;412.10;150.40;;;;;;;;;;5023280;28;20212;-55
2023/12/21 08:51:33;;;;;;;487.70;190.83;;;;;;;;;;5021990;28;20195;-54
2023/12/21 08:53:59;;;;;;;438.67;158.33;;;;;;;;;;5015262;28;20208;-55
2023/12/21 08:56:25;;;;;;;443.17;163.67;;;;;;;;;;5024581;28;20226;-53
2023/12/21 08:58:52;;;;;;;476.70;173.57;;;;;;;;;;5018911;28;20496;-53
2023/12/21 09:01:19;;;;;;;449.00;166.00;;;;;;;;;;5018570;28;20211;-53
2023/12/21 09:03:45;;;;;;;441.00;161.67;;;;;;;;;;5027702;28;20223;-54
2023/12/21 09:06:11;;;;;;;417.33;153.33;;;;;;;;;;5030649;28;20678;-56
2023/12/21 09:08:37;;;;;;;453.30;169.83;;;;;;;;;;5028432;28;20269;-54
2023/12/21 09:11:04;;;;;;;405.23;148.57;;;;;;;;;;5025010;28;20227;-54
2023/12/21 09:13:30;;;;;;;473.43;175.97;;;;;;;;;;5031412;28;20649;-54
2023/12/21 09:15:56;;;;;;;506.63;194.27;;;;;;;;;;5029127;28;20247;-56
2023/12/21 09:18:22;;;;;;;443.83;165.53;;;;;;;;;;5038761;28;20593;-55
2023/12/21 09:20:48;;;;;;;454.47;171.30;;;;;;;;;;5019346;28;20669;-55
2023/12/21 09:23:14;;;;;;;443.60;161.53;;;;;;;;;;5017851;28;20595;-54
2023/12/21 09:25:40;;;;;;;436.33;162.77;;;;;;;;;;5015765;28;20262;-54
2023/12/21 09:28:06;;;;;;;444.50;167.47;;;;;;;;;;5020812;28;20226;-54
2023/12/21 09:30:32;;;;;;;478.60;177.80;;;;;;;;;;5033829;28;20278;-54
2023/12/21 09:33:01;;;;;;;447.50;168.43;;;;;;;;;;5022726;28;20544;-54
2023/12/21 09:35:28;;;;;;;478.30;179.20;;;;;;;;;;5032646;28;20239;-53
2023/12/21 09:37:55;;;;;;;437.33;162.20;;;;;;;;;;5036470;28;20211;-54
2023/12/21 09:40:24;;;;;;;459.70;172.73;;;;;;;;;;5037979;28;20250;-54
2023/12/21 09:42:51;;;;;;;431.80;165.40;;;;;;;;;;5038050;28;20231;-54
2023/12/21 09:45:18;;;;;;;452.80;171.47;;;;;;;;;;5026925;28;20183;-54
2023/12/21 09:47:45;;;;;;;551.97;213.70;;;;;;;;;;5022482;28;20231;-54
2023/12/21 09:50:12;;;;;;;438.73;159.83;;;;;;;;;;5029723;28;20486;-54
2023/12/21 09:52:39;;;;;;;456.33;168.07;;;;;;;;;;5030899;28;20215;-54
2023/12/21 09:55:07;;;;;;;458.87;173.53;;;;;;;;;;5030935;28;20349;-54
2023/12/21 09:57:37;;;;;;;508.03;193.87;;;;;;;;;;5025321;28;21071;-54
2023/12/21 10:00:04;;;;;;;444.77;165.50;;;;;;;;;;5032508;28;20256;-54
2023/12/21 10:02:31;;;;;;;432.17;159.17;;;;;;;;;;5035683;28;20319;-54
2023/12/21 10:04:58;;;;;;;442.40;162.83;;;;;;;;;;5037972;28;20212;-54
2023/12/21 10:07:25;;;;;;;506.30;187.53;;;;;;;;;;5029786;28;20713;-55
2023/12/21 10:09:51;;;;;;;494.77;184.43;;;;;;;;;;5031597;28;20215;-55
2023/12/21 10:12:17;;;;;;;415.03;151.47;;;;;;;;;;5031809;28;20774;-55
2023/12/21 10:14:43;;;;;;;467.83;170.73;;;;;;;;;;5023767;28;20624;-55
2023/12/21 10:17:10;;;;;;;434.13;159.57;;;;;;;;;;5033887;28;20283;-55
2023/12/21 10:19:44;;;;;;;501.73;187.93;;;;;;;;;;5035843;28;20204;-55
2023/12/21 10:22:10;;;;;;;413.13;153.67;;;;;;;;;;5026458;28;20678;-55
2023/12/21 10:24:37;;;;;;;467.93;178.37;;;;;;;;;;5025078;28;20200;-51
2023/12/21 10:27:03;;;;;;;434.37;162.93;;;;;;;;;;5025312;28;20187;-51
2023/12/21 10:29:29;;;;;;;444.27;170.00;;;;;;;;;;5031531;28;20562;-51
2023/12/21 10:31:56;;;;;;;461.03;168.00;;;;;;;;;;5026262;28;21929;-51
2023/12/21 10:34:23;;;;;;;428.57;154.27;;;;;;;;;;5024207;28;20281;-50
2023/12/21 10:36:49;;;;;;;421.93;155.10;;;;;;;;;;5025683;28;20247;-51
2023/12/21 10:39:15;;;;;;;443.97;167.67;;;;;;;;;;5027143;28;20235;-51
2023/12/21 10:41:45;;;;;;;440.63;163.33;;;;;;;;;;5019410;28;20230;-51
2023/12/21 10:44:15;;;;;;;454.07;169.90;;;;;;;;;;5029506;28;20219;-51
2023/12/21 10:46:41;;;;;;;444.47;166.70;;;;;;;;;;5026717;28;20214;-51
2023/12/21 10:49:10;;;;;;;448.00;164.03;;;;;;;;;;5031300;28;20219;-50
2023/12/21 10:51:37;;;;;;;445.43;168.77;;;;;;;;;;5028236;28;20275;-51
2023/12/21 10:54:06;;;;;;;408.97;152.17;;;;;;;;;;5026242;28;20208;-50
2023/12/21 10:56:32;;;;;;;450.57;169.83;;;;;;;;;;5026880;28;20228;-51
2023/12/21 10:59:03;;;;;;;417.63;155.97;;;;;;;;;;5025154;28;20817;-51
2023/12/21 11:01:30;;;;;;;454.80;169.70;;;;;;;;;;5027579;28;20216;-50
2023/12/21 11:03:59;;;;;;;445.87;164.10;;;;;;;;;;5030963;28;20392;-50
2023/12/21 11:06:26;;;;;;;436.67;161.37;;;;;;;;;;5027910;28;20267;-50
2023/12/21 11:08:52;;;;;;;461.50;171.30;;;;;;;;;;5029313;28;20172;-51
2023/12/21 11:11:22;;;;;;;445.37;162.73;;;;;;;;;;5024858;28;20265;-51
2023/12/21 11:13:52;;;;;;;425.67;157.57;;;;;;;;;;5027788;28;20215;-51
2023/12/21 11:16:20;;;;;;;425.77;161.87;;;;;;;;;;5031541;28;20277;-52
2023/12/21 11:18:47;;;;;;;434.97;161.37;;;;;;;;;;5026039;28;20403;-51
2023/12/21 11:21:14;;;;;;;450.57;166.07;;;;;;;;;;5025776;28;20408;-51
2023/12/21 11:23:44;;;;;;;464.63;172.90;;;;;;;;;;5024674;28;20277;-50
2023/12/21 11:26:10;;;;;;;443.13;163.93;;;;;;;;;;5025171;28;20248;-50
2023/12/21 11:28:36;;;;;;;438.87;165.50;;;;;;;;;;5031601;28;20218;-50
2023/12/21 11:31:12;;;;;;;414.57;153.07;;;;;;;;;;5020345;28;20219;-51
2023/12/21 11:33:39;;;;;;;455.37;171.20;;;;;;;;;;5026825;28;20211;-50
2023/12/21 11:36:05;;;;;;;482.23;184.67;;;;;;;;;;5030372;28;20265;-51
2023/12/21 11:38:43;;;;;;;627.17;255.33;;;;;;;;;;5016056;28;20215;-51
2023/12/21 11:41:09;;;;;;;451.23;165.33;;;;;;;;;;5028865;28;20212;-50
2023/12/21 11:43:35;;;;;;;479.43;179.97;;;;;;;;;;5029345;28;20721;-50
2023/12/21 11:46:02;;;;;;;465.83;170.17;;;;;;;;;;5028984;28;20226;-50
2023/12/21 11:48:29;;;;;;;462.53;173.70;;;;;;;;;;5028431;28;20472;-50
2023/12/21 11:51:04;;;;;;;425.03;158.53;;;;;;;;;;5041286;28;20558;-50
2023/12/21 11:53:31;;;;;;;403.77;149.90;;;;;;;;;;5045838;28;20226;-50
2023/12/21 11:55:57;;;;;;;434.97;160.70;;;;;;;;;;5039912;28;20219;-50
2023/12/21 11:58:23;;;;;;;436.97;167.03;;;;;;;;;;5044635;28;20218;-50
2023/12/21 12:00:56;;;;;;;470.73;176.57;;;;;;;;;;5039264;28;20918;-51
2023/12/21 12:03:24;;;;;;;472.33;175.60;;;;;;;;;;5039015;28;20203;-51
2023/12/21 12:05:53;;;;;;;430.37;161.70;;;;;;;;;;5049132;28;20215;-51
2023/12/21 12:08:22;;;;;;;433.83;161.50;;;;;;;;;;5048907;28;20214;-51
2023/12/21 12:10:48;;;;;;;481.27;181.00;;;;;;;;;;5040101;28;20254;-51
2023/12/21 12:13:21;;;;;;;405.10;150.00;;;;;;;;;;5051675;28;20229;-51
2023/12/21 12:15:48;;;;;;;483.37;185.37;;;;;;;;;;5042331;28;20231;-51
2023/12/21 12:18:14;;;;;;;440.50;164.07;;;;;;;;;;5052122;28;20198;-51
2023/12/21 12:20:43;;;;;;;451.93;168.57;;;;;;;;;;5043110;28;20513;-50
2023/12/21 12:23:10;;;;;;;440.03;163.27;;;;;;;;;;5042095;28;20212;-50
2023/12/21 12:25:36;;;;;;;437.57;163.13;;;;;;;;;;5041008;28;20219;-51
2023/12/21 12:28:03;;;;;;;416.70;156.53;;;;;;;;;;5043527;28;20222;-50
2023/12/21 12:30:29;;;;;;;408.70;153.47;;;;;;;;;;5039541;28;20282;-51
2023/12/21 12:32:56;;;;;;;429.40;164.83;;;;;;;;;;5050663;28;20207;-51
2023/12/21 12:35:22;;;;;;;432.03;165.40;;;;;;;;;;5045510;28;20223;-51
2023/12/21 12:37:51;;;;;;;437.73;165.37;;;;;;;;;;5032971;28;20215;-50
2023/12/21 12:40:17;;;;;;;445.67;165.00;;;;;;;;;;5047744;28;20215;-50
2023/12/21 12:42:43;;;;;;;452.47;173.47;;;;;;;;;;5046641;28;20234;-50
2023/12/21 12:45:11;;;;;;;461.23;173.57;;;;;;;;;;5043486;28;20269;-50
2023/12/21 12:47:37;;;;;;;438.10;167.20;;;;;;;;;;5050687;28;20260;-51
2023/12/21 12:50:04;;;;;;;462.83;180.53;;;;;;;;;;5046892;28;20245;-51
2023/12/21 12:52:30;;;;;;;433.33;159.00;;;;;;;;;;5056237;28;20238;-51
2023/12/21 12:55:00;;;;;;;428.60;158.90;;;;;;;;;;5048733;28;20219;-50
2023/12/21 12:57:26;;;;;;;452.30;166.50;;;;;;;;;;5048223;28;20183;-51
2023/12/21 12:59:57;;;;;;;445.17;165.73;;;;;;;;;;5050368;28;20559;-51
2023/12/21 13:02:23;;;;;;;460.50;172.10;;;;;;;;;;5055970;28;20685;-51
2023/12/21 13:04:49;;;;;;;441.60;169.20;;;;;;;;;;5041851;28;20273;-51
2023/12/21 13:07:17;;;;;;;452.50;168.40;;;;;;;;;;5040750;28;20247;-51
2023/12/21 13:09:43;;;;;;;440.27;167.07;;;;;;;;;;5049438;28;20396;-51
2023/12/21 13:12:09;;;;;;;454.00;170.97;;;;;;;;;;5054848;28;20295;-50
2023/12/21 13:14:35;;;;;;;446.60;169.23;;;;;;;;;;5046158;28;20212;-49
2023/12/21 13:17:01;;;;;;;410.87;154.80;;;;;;;;;;5054091;28;20462;-49
2023/12/21 13:19:27;;;;;;;493.37;187.90;;;;;;;;;;5047639;28;20290;-50
2023/12/21 13:21:55;;;;;;;451.07;172.23;;;;;;;;;;5053376;28;20585;-50
2023/12/21 13:24:21;;;;;;;468.03;179.83;;;;;;;;;;5052094;28;20199;-50
2023/12/21 13:26:47;;;;;;;431.40;160.23;;;;;;;;;;5053593;28;20303;-50
2023/12/21 13:29:13;;;;;;;420.30;153.43;;;;;;;;;;5039368;28;20216;-50
2023/12/21 13:31:40;;;;;;;555.40;223.43;;;;;;;;;;5039422;28;20225;-49
2023/12/21 13:34:06;;;;;;;461.03;172.93;;;;;;;;;;5040829;28;20223;-51
2023/12/21 13:36:32;;;;;;;437.03;159.60;;;;;;;;;;5055118;28;20658;-50
2023/12/21 13:38:58;;;;;;;424.23;159.33;;;;;;;;;;5038369;28;20607;-50
2023/12/21 13:41:24;;;;;;;458.10;173.87;;;;;;;;;;5041925;28;20223;-50
2023/12/21 13:43:50;;;;;;;452.53;167.37;;;;;;;;;;5045456;28;20287;-50
2023/12/21 13:46:17;;;;;;;416.90;155.27;;;;;;;;;;5044562;28;20297;-50